createdAt,value
2023-01-03T00:01:42.902Z,97566.22
2023-01-03T00:04:11.575Z,97578.63
2023-01-03T00:06:45.222Z,97572.25
2023-01-03T00:09:16.411Z,97560.41
2023-01-03T00:12:04.979Z,97520.75
2023-01-03T00:14:37.125Z,97545.69
2023-01-03T00:17:07.312Z,97504.31
2023-01-03T00:19:40.075Z,97521.03
2023-01-03T00:22:11.793Z,97599.16
2023-01-03T00:24:40.848Z,97564.53
2023-01-03T00:27:09.509Z,97595.59
2023-01-03T00:29:39.247Z,97605.00
2023-01-03T00:32:07.990Z,97528.28
2023-01-03T00:34:37.146Z,97526.84
2023-01-03T00:37:05.706Z,97596.09
2023-01-03T00:39:35.360Z,97581.19
2023-01-03T00:42:03.622Z,97594.03
2023-01-03T00:44:32.328Z,97530.19
2023-01-03T00:47:01.321Z,97600.72
2023-01-03T00:49:30.300Z,97584.28
2023-01-03T00:51:58.796Z,97610.22
2023-01-03T00:54:27.056Z,97587.13
2023-01-03T00:56:57.126Z,97603.59
2023-01-03T00:59:25.802Z,97614.19
2023-01-03T01:01:56.991Z,97615.13
2023-01-03T01:04:28.040Z,97631.94
2023-01-03T01:06:59.920Z,97593.13
2023-01-03T01:09:30.596Z,97587.50
2023-01-03T01:12:00.370Z,97601.56
2023-01-03T01:14:31.036Z,97566.31
2023-01-03T01:17:04.155Z,97609.78
2023-01-03T01:19:38.135Z,97623.38
2023-01-03T01:22:07.118Z,97634.34
2023-01-03T01:24:35.694Z,97569.59
2023-01-03T01:27:05.629Z,97629.13
2023-01-03T01:29:33.867Z,97609.19
2023-01-03T01:32:03.010Z,97611.72
2023-01-03T01:34:36.618Z,97641.94
2023-01-03T01:37:05.962Z,97598.13
2023-01-03T01:39:34.382Z,97639.81
2023-01-03T01:42:30.285Z,97605.28
2023-01-03T01:45:01.055Z,97613.13
2023-01-03T01:47:46.059Z,97665.78
2023-01-03T01:50:23.787Z,97568.13
2023-01-03T01:52:58.604Z,97605.53
2023-01-03T01:55:32.114Z,97643.13
2023-01-03T01:58:02.830Z,97603.50
2023-01-03T02:00:31.682Z,97590.97
2023-01-03T02:03:00.438Z,97629.34
2023-01-03T02:05:29.711Z,97665.66
2023-01-03T02:07:59.182Z,97591.00
2023-01-03T02:10:45.191Z,97631.97
2023-01-03T02:13:27.694Z,97606.81
2023-01-03T02:16:30.643Z,97600.53
2023-01-03T02:19:17.593Z,97660.03
2023-01-03T02:22:16.841Z,97653.63
2023-01-03T02:25:37.053Z,97645.63
2023-01-03T02:28:51.315Z,97660.63
2023-01-03T02:31:26.855Z,97636.25
2023-01-03T02:34:03.704Z,97590.28
2023-01-03T02:36:43.883Z,97624.22
2023-01-03T02:39:23.495Z,97633.38
2023-01-03T02:42:13.300Z,97599.56
2023-01-03T02:44:51.308Z,97653.63
2023-01-03T02:47:26.119Z,97645.06
2023-01-03T02:49:55.866Z,97567.88
2023-01-03T02:52:28.726Z,97572.41
2023-01-03T02:55:01.549Z,97667.31
2023-01-03T02:57:36.998Z,97651.72
2023-01-03T03:00:10.523Z,97659.09
2023-01-03T03:03:09.753Z,97604.56
2023-01-03T03:05:45.047Z,97630.75
2023-01-03T03:08:13.684Z,97661.50
2023-01-03T03:11:00.501Z,97652.31
2023-01-03T03:13:35.753Z,97650.25
2023-01-03T03:16:11.716Z,97609.34
2023-01-03T03:18:55.074Z,97624.78
2023-01-03T03:21:43.532Z,97584.94
2023-01-03T03:24:33.099Z,97595.78
2023-01-03T03:27:24.552Z,97664.81
2023-01-03T03:29:56.024Z,97590.28
2023-01-03T03:32:28.383Z,97619.09
2023-01-03T03:35:00.536Z,97398.41
2023-01-03T03:37:30.730Z,97622.19
2023-01-03T03:40:16.447Z,97652.91
2023-01-03T03:43:08.506Z,97662.66
2023-01-03T03:45:43.050Z,97645.28
2023-01-03T03:48:17.188Z,97635.63
2023-01-03T03:50:51.029Z,97604.56
2023-01-03T03:53:24.830Z,97648.13
2023-01-03T03:55:58.910Z,97659.19
2023-01-03T03:58:35.078Z,97653.38
2023-01-03T04:01:04.537Z,97670.75
2023-01-03T04:03:34.001Z,97606.00
2023-01-03T04:06:09.198Z,97575.78
2023-01-03T04:08:38.107Z,97614.56
2023-01-03T04:11:07.171Z,97666.47
2023-01-03T04:13:38.586Z,97625.53
2023-01-03T04:16:08.691Z,97652.88
2023-01-03T04:18:37.149Z,97614.06
2023-01-03T04:21:07.083Z,97599.56
2023-01-03T04:23:35.271Z,97454.94
2023-01-03T04:26:03.553Z,97671.22
2023-01-03T04:28:31.756Z,97694.28
2023-01-03T04:30:59.990Z,97641.09
2023-01-03T04:33:28.248Z,97681.31
2023-01-03T04:35:56.476Z,97680.84
2023-01-03T04:38:26.067Z,97636.47
2023-01-03T04:40:54.286Z,97636.69
2023-01-03T04:43:42.758Z,97664.53
2023-01-03T04:46:11.050Z,97662.13
2023-01-03T04:48:39.341Z,97654.28
2023-01-03T04:51:07.830Z,97606.00
2023-01-03T04:53:37.537Z,97645.28
2023-01-03T04:56:06.612Z,97649.41
2023-01-03T04:58:34.815Z,97682.97
2023-01-03T05:01:05.120Z,97666.53
2023-01-03T05:03:33.421Z,97667.38
2023-01-03T05:06:02.103Z,97654.28
2023-01-03T05:08:30.912Z,97690.72
2023-01-03T05:11:00.464Z,97653.59
2023-01-03T05:13:29.740Z,97653.13
2023-01-03T05:15:58.249Z,97635.97
2023-01-03T05:18:26.516Z,97650.72
2023-01-03T05:21:12.487Z,97679.75
2023-01-03T05:23:58.626Z,97712.81
2023-01-03T05:26:28.240Z,97693.28
2023-01-03T05:28:56.766Z,97595.00
2023-01-03T05:31:25.007Z,97729.34
2023-01-03T05:33:53.213Z,97669.72
2023-01-03T05:36:21.423Z,97720.19
2023-01-03T05:38:49.635Z,97838.81
2023-01-03T05:41:38.863Z,97686.88
2023-01-03T05:44:08.701Z,97736.88
2023-01-03T05:46:36.944Z,97705.13
2023-01-03T05:49:05.255Z,97727.19
2023-01-03T05:51:33.601Z,97710.47
2023-01-03T05:54:01.815Z,97748.34
2023-01-03T05:56:31.570Z,97685.31
2023-01-03T05:58:59.797Z,97735.66
2023-01-03T06:01:30.244Z,97702.34
2023-01-03T06:03:58.532Z,97686.41
2023-01-03T06:06:27.312Z,97666.66
2023-01-03T06:08:55.728Z,97829.66
2023-01-03T06:11:24.099Z,97714.50
2023-01-03T06:13:52.325Z,97731.66
2023-01-03T06:16:39.625Z,97733.75
2023-01-03T06:19:09.884Z,97450.72
2023-01-03T06:21:38.731Z,97746.53
2023-01-03T06:24:07.644Z,97730.19
2023-01-03T06:26:36.047Z,97715.66
2023-01-03T06:29:06.012Z,97746.59
2023-01-03T06:31:34.671Z,97708.03
2023-01-03T06:34:03.949Z,97707.06
2023-01-03T06:36:37.353Z,97741.13
2023-01-03T06:39:05.768Z,97711.13
2023-01-03T06:41:34.013Z,97741.81
2023-01-03T06:44:02.207Z,97711.91
2023-01-03T06:46:52.891Z,97698.91
2023-01-03T06:49:41.407Z,97773.44
2023-01-03T06:52:35.095Z,97706.97
2023-01-03T06:55:03.925Z,97701.41
2023-01-03T06:57:32.107Z,97759.22
2023-01-03T07:00:00.912Z,97749.38
2023-01-03T07:02:29.237Z,97766.34
2023-01-03T07:05:01.666Z,97716.31
2023-01-03T07:07:31.208Z,97754.63
2023-01-03T07:09:59.396Z,97739.06
2023-01-03T07:12:45.692Z,97753.16
2023-01-03T07:15:13.964Z,97707.78
2023-01-03T07:17:42.147Z,97747.28
2023-01-03T07:20:10.821Z,97722.69
2023-01-03T07:22:40.382Z,97762.44
2023-01-03T07:25:09.408Z,97748.75
2023-01-03T07:27:37.615Z,97756.50
2023-01-03T07:30:08.483Z,97734.44
2023-01-03T07:32:38.669Z,97752.53
2023-01-03T07:35:08.506Z,97791.75
2023-01-03T07:37:36.751Z,97711.47
2023-01-03T07:40:08.654Z,97735.63
2023-01-03T07:42:54.172Z,97764.47
2023-01-03T07:45:23.045Z,97771.78
2023-01-03T07:47:52.978Z,97743.56
2023-01-03T07:50:21.344Z,97749.72
2023-01-03T07:52:49.598Z,97789.97
2023-01-03T07:55:19.243Z,97774.28
2023-01-03T07:57:48.166Z,97825.28
2023-01-03T08:00:17.800Z,97772.75
2023-01-03T08:02:47.333Z,97758.09
2023-01-03T08:05:16.238Z,97789.13
2023-01-03T08:07:44.536Z,97802.28
2023-01-03T08:10:30.452Z,97795.28
2023-01-03T08:13:18.391Z,97815.06
2023-01-03T08:15:51.910Z,97817.34
2023-01-03T08:18:22.402Z,97831.44
2023-01-03T08:20:51.555Z,97808.56
2023-01-03T08:23:19.827Z,97815.88
2023-01-03T08:25:48.049Z,97817.56
2023-01-03T08:28:18.724Z,97829.88
2023-01-03T08:30:50.707Z,97797.47
2023-01-03T08:33:20.952Z,97874.84
2023-01-03T08:35:54.348Z,97829.63
2023-01-03T08:38:28.657Z,97786.56
2023-01-03T08:40:58.319Z,97799.47
2023-01-03T08:43:29.695Z,97835.81
2023-01-03T08:45:58.804Z,97834.97
2023-01-03T08:48:27.135Z,97850.66
2023-01-03T08:50:55.323Z,97810.22
2023-01-03T08:53:24.426Z,97806.38
2023-01-03T08:55:52.708Z,97839.09
2023-01-03T08:58:21.497Z,97842.06
2023-01-03T09:00:51.145Z,97830.41
2023-01-03T09:03:19.633Z,97839.81
2023-01-03T09:05:48.149Z,97847.41
2023-01-03T09:08:18.522Z,97815.44
2023-01-03T09:10:48.307Z,97871.34
2023-01-03T09:13:18.413Z,97822.06
2023-01-03T09:15:46.746Z,97835.81
2023-01-03T09:18:16.379Z,97828.00
2023-01-03T09:20:44.572Z,97870.41
2023-01-03T09:23:13.235Z,97860.44
2023-01-03T09:25:42.003Z,97884.78
2023-01-03T09:28:10.220Z,97841.16
2023-01-03T09:30:38.616Z,97857.75
2023-01-03T09:33:07.173Z,97850.16
2023-01-03T09:35:36.789Z,97850.50
2023-01-03T09:38:05.155Z,97874.84
2023-01-03T09:40:42.200Z,97810.50
2023-01-03T09:43:24.986Z,97863.66
2023-01-03T09:45:58.249Z,97704.50
2023-01-03T09:48:34.607Z,97841.63
2023-01-03T09:51:29.700Z,97825.38
2023-01-03T09:54:16.971Z,97801.53
2023-01-03T09:57:02.933Z,97845.13
2023-01-03T09:59:53.597Z,97688.75
2023-01-03T10:03:05.624Z,97834.06
2023-01-03T10:05:49.013Z,97798.22
2023-01-03T10:08:46.437Z,97805.41
2023-01-03T10:11:26.411Z,97837.47
2023-01-03T10:14:09.117Z,97863.88
2023-01-03T10:16:49.055Z,97812.50
2023-01-03T10:19:38.289Z,97828.22
2023-01-03T10:22:12.987Z,97778.66
2023-01-03T10:24:47.550Z,97885.22
2023-01-03T10:27:19.082Z,97764.41
2023-01-03T10:29:48.452Z,97868.59
2023-01-03T10:32:33.519Z,97866.53
2023-01-03T10:35:22.862Z,97839.50
2023-01-03T10:37:53.331Z,97832.38
2023-01-03T10:40:35.753Z,97844.13
2023-01-03T10:43:17.383Z,97813.25
2023-01-03T10:45:57.909Z,97848.31
2023-01-03T10:48:52.635Z,97826.63
2023-01-03T10:51:38.343Z,97765.41
2023-01-03T10:54:19.853Z,97792.44
2023-01-03T10:56:51.175Z,97763.34
2023-01-03T10:59:25.196Z,97827.81
2023-01-03T11:05:15.176Z,97797.56
2023-01-03T11:07:45.348Z,97835.00
2023-01-03T11:10:18.588Z,97832.38
2023-01-03T11:12:48.201Z,97824.38
2023-01-03T11:15:19.657Z,97813.31
2023-01-03T11:17:56.055Z,97802.78
2023-01-03T11:20:39.821Z,97816.81
2023-01-03T11:23:18.066Z,97806.84
2023-01-03T11:25:56.405Z,97815.59
2023-01-03T11:28:59.372Z,97780.25
2023-01-03T11:31:40.511Z,97807.28
2023-01-03T11:34:48.176Z,97739.91
2023-01-03T11:37:29.472Z,97815.78
2023-01-03T11:40:11.938Z,97791.63
2023-01-03T11:42:56.825Z,97796.00
2023-01-03T11:45:59.380Z,97728.19
2023-01-03T11:48:54.235Z,97741.34
2023-01-03T11:51:30.375Z,97808.72
2023-01-03T11:54:08.848Z,97790.19
2023-01-03T11:56:40.893Z,97806.06
2023-01-03T11:59:37.311Z,97794.88
2023-01-03T12:02:59.858Z,97808.09
2023-01-03T12:05:44.677Z,97805.91
2023-01-03T12:08:41.763Z,97930.47
2023-01-03T12:11:43.581Z,97829.19
2023-01-03T12:14:19.471Z,97780.69
2023-01-03T12:16:53.660Z,97780.09
2023-01-03T12:19:34.096Z,97740.84
2023-01-03T12:22:11.520Z,97755.88
2023-01-03T12:24:47.478Z,97788.56
2023-01-03T12:27:22.372Z,97693.88
2023-01-03T12:29:59.052Z,97782.94
2023-01-03T12:32:34.908Z,97748.47
2023-01-03T12:35:29.449Z,97771.28
2023-01-03T12:38:00.176Z,97724.28
2023-01-03T12:40:40.562Z,97752.00
2023-01-03T12:43:14.138Z,97800.16
2023-01-03T12:45:47.023Z,97766.16
2023-01-03T12:48:54.804Z,97759.19
2023-01-03T12:51:25.719Z,97791.13
2023-01-03T12:54:10.392Z,97785.88
2023-01-03T12:57:01.942Z,97752.38
2023-01-03T13:00:11.452Z,97744.63
2023-01-03T13:02:51.063Z,97723.31
2023-01-03T13:05:28.887Z,97749.13
2023-01-03T13:08:08.309Z,97744.44
2023-01-03T13:10:40.224Z,97773.91
2023-01-03T13:13:15.920Z,97736.38
2023-01-03T13:15:46.273Z,97732.31
2023-01-03T13:18:36.362Z,97739.13
2023-01-03T13:21:56.941Z,97732.53
2023-01-03T13:24:43.993Z,97797.91
2023-01-03T13:27:36.108Z,97726.22
2023-01-03T13:30:19.895Z,97757.56
2023-01-03T13:32:54.783Z,97737.59
2023-01-03T13:35:35.854Z,97698.78
2023-01-03T13:38:24.873Z,97685.44
2023-01-03T13:43:53.124Z,97702.38
2023-01-03T13:46:25.179Z,97721.00
2023-01-03T13:48:57.920Z,97727.84
2023-01-03T13:51:48.636Z,97709.97
2023-01-03T13:55:08.769Z,97755.09
2023-01-03T13:57:53.312Z,97711.47
2023-01-03T14:00:24.273Z,97687.00
2023-01-03T14:03:22.042Z,97727.53
2023-01-03T14:06:40.651Z,97741.66
2023-01-03T14:09:41.072Z,97693.31
2023-01-03T14:12:50.518Z,97761.75
2023-01-03T14:15:25.865Z,97663.44
2023-01-03T14:17:59.300Z,97709.47
2023-01-03T14:20:33.323Z,97680.34
2023-01-03T14:23:31.272Z,97744.47
2023-01-03T14:25:55.304Z,97736.44
2023-01-03T14:28:27.508Z,97725.47
2023-01-03T14:31:05.339Z,97713.44
2023-01-03T14:33:39.484Z,97720.38
2023-01-03T14:36:13.217Z,97663.00
2023-01-03T14:38:49.508Z,97783.22
2023-01-03T14:41:29.696Z,97767.59
2023-01-03T14:44:07.130Z,97704.75
2023-01-03T14:46:37.222Z,97710.22
2023-01-03T14:49:17.361Z,97685.22
2023-01-03T14:51:45.612Z,97726.13
2023-01-03T14:54:18.972Z,97681.16
2023-01-03T14:56:48.047Z,97708.97
2023-01-03T14:59:21.020Z,97643.69
2023-01-03T15:01:49.649Z,97766.09
2023-01-03T15:04:20.718Z,97744.00
2023-01-03T15:07:06.373Z,97779.09
2023-01-03T15:09:39.482Z,97741.22
2023-01-03T15:12:08.254Z,97747.81
2023-01-03T15:14:39.951Z,97740.09
2023-01-03T15:17:16.364Z,97791.41
2023-01-03T15:19:51.987Z,97795.97
2023-01-03T15:22:23.673Z,97777.91
2023-01-03T15:25:00.887Z,97773.81
2023-01-03T15:27:44.369Z,97763.47
2023-01-03T15:30:27.253Z,97777.09
2023-01-03T15:32:59.815Z,97727.31
2023-01-03T15:35:37.513Z,97780.28
2023-01-03T15:38:15.977Z,97787.47
2023-01-03T15:40:47.358Z,97758.97
2023-01-03T15:43:21.620Z,97768.97
2023-01-03T15:46:05.002Z,97747.19
2023-01-03T15:48:36.082Z,97795.19
2023-01-03T15:51:06.908Z,97772.69
2023-01-03T15:53:43.157Z,97784.06
2023-01-03T15:56:19.275Z,97811.53
2023-01-03T15:58:48.865Z,97742.94
2023-01-03T16:01:20.030Z,97817.72
2023-01-03T16:03:50.047Z,97775.38
2023-01-03T16:06:18.529Z,97780.88
2023-01-03T16:08:47.218Z,97808.53
2023-01-03T16:11:20.440Z,97797.19
2023-01-03T16:13:53.199Z,97808.28
2023-01-03T16:16:26.822Z,97806.34
2023-01-03T16:18:57.125Z,97843.94
2023-01-03T16:21:26.422Z,97835.63
2023-01-03T16:23:54.675Z,97857.44
2023-01-03T16:26:22.887Z,97727.53
2023-01-03T16:28:51.113Z,97780.31
2023-01-03T16:31:24.559Z,97786.22
2023-01-03T16:33:53.012Z,97836.94
2023-01-03T16:36:31.461Z,97817.84
2023-01-03T16:39:00.722Z,97833.34
2023-01-03T16:41:29.089Z,97755.88
2023-01-03T16:43:57.293Z,97813.78
2023-01-03T16:46:29.366Z,97819.66
2023-01-03T16:48:59.894Z,97813.56
2023-01-03T16:51:32.582Z,97820.34
2023-01-03T16:54:03.715Z,97871.56
2023-01-03T16:56:32.388Z,97841.31
2023-01-03T16:59:00.628Z,97814.25
2023-01-03T17:01:30.332Z,97842.94
2023-01-03T17:03:58.705Z,97842.00
2023-01-03T17:06:38.013Z,97872.75
2023-01-03T17:09:12.798Z,97811.34
2023-01-03T17:11:41.315Z,97870.97
2023-01-03T17:14:17.980Z,97800.41
2023-01-03T17:16:48.046Z,97859.91
2023-01-03T17:20:02.750Z,97875.88
2023-01-03T17:22:15.874Z,97870.13
2023-01-03T17:24:44.658Z,97863.53
2023-01-03T17:27:17.761Z,97823.41
2023-01-03T17:29:47.397Z,97912.69
2023-01-03T17:32:21.226Z,97889.25
2023-01-03T17:34:49.567Z,97840.84
2023-01-03T17:37:20.724Z,97888.59
2023-01-03T17:39:55.091Z,97726.09
2023-01-03T17:42:24.422Z,97809.88
2023-01-03T17:45:10.826Z,97827.53
2023-01-03T17:48:00.541Z,97870.72
2023-01-03T17:50:30.409Z,97870.31
2023-01-03T17:52:59.247Z,97859.25
2023-01-03T17:55:30.499Z,97865.72
2023-01-03T17:58:02.945Z,97868.63
2023-01-03T18:00:32.647Z,97823.50
2023-01-03T18:03:02.381Z,97831.78
2023-01-03T18:05:31.096Z,97972.56
2023-01-03T18:08:02.621Z,97867.25
2023-01-03T18:10:41.535Z,97831.63
2023-01-03T18:13:23.084Z,97802.75
2023-01-03T18:15:52.267Z,97805.25
2023-01-03T18:18:24.631Z,97848.94
2023-01-03T18:20:53.874Z,97790.44
2023-01-03T18:23:27.990Z,97878.06
2023-01-03T18:25:58.679Z,97832.97
2023-01-03T18:28:28.887Z,97853.03
2023-01-03T18:30:58.239Z,97851.47
2023-01-03T18:33:27.935Z,97813.16
2023-01-03T18:35:56.230Z,97843.28
2023-01-03T18:38:28.279Z,97868.06
2023-01-03T18:41:02.441Z,97871.22
2023-01-03T18:43:33.149Z,97820.34
2023-01-03T18:46:01.494Z,97849.91
2023-01-03T18:48:31.142Z,97835.09
2023-01-03T18:51:00.183Z,97860.41
2023-01-03T18:53:32.147Z,97850.66
2023-01-03T18:56:00.833Z,97833.03
2023-01-03T18:58:34.243Z,97832.13
2023-01-03T19:01:02.631Z,97882.09
2023-01-03T19:03:42.582Z,97834.63
2023-01-03T19:06:18.605Z,97825.06
2023-01-03T19:08:47.308Z,97858.94
2023-01-03T19:11:19.793Z,97839.78
2023-01-03T19:13:51.744Z,97843.50
2023-01-03T19:16:23.054Z,97835.53
2023-01-03T19:18:53.707Z,97843.50
2023-01-03T19:21:23.623Z,97799.69
2023-01-03T19:24:01.903Z,97872.53
2023-01-03T19:26:34.335Z,97876.34
2023-01-03T19:29:06.539Z,97803.25
2023-01-03T19:31:42.742Z,97847.50
2023-01-03T19:34:17.913Z,97884.25
2023-01-03T19:36:46.945Z,97877.44
2023-01-03T19:39:17.716Z,97842.00
2023-01-03T19:42:10.606Z,97844.41
2023-01-03T19:44:38.963Z,97885.63
2023-01-03T19:47:11.797Z,97833.97
2023-01-03T19:49:41.382Z,97850.28
2023-01-03T19:52:09.656Z,97881.28
2023-01-03T19:54:37.874Z,97870.97
2023-01-03T19:57:06.850Z,97885.50
2023-01-03T19:59:38.391Z,97848.25
2023-01-03T20:02:26.526Z,97874.28
2023-01-03T20:04:56.233Z,97831.50
2023-01-03T20:07:24.615Z,97859.88
2023-01-03T20:09:52.869Z,97692.53
2023-01-03T20:12:27.876Z,97868.81
2023-01-03T20:15:02.847Z,97802.44
2023-01-03T20:17:34.934Z,97802.38
2023-01-03T20:20:05.181Z,97889.81
2023-01-03T20:25:27.437Z,97829.44
2023-01-03T20:27:57.614Z,97843.75
2023-01-03T20:30:28.927Z,97856.75
2023-01-03T20:32:57.360Z,97823.22
2023-01-03T20:38:24.659Z,97871.94
2023-01-03T20:40:53.401Z,97837.00
2023-01-03T20:43:22.395Z,97863.00
2023-01-03T20:45:55.156Z,97869.69
2023-01-03T20:48:26.206Z,97840.66
2023-01-03T20:50:56.258Z,97890.81
2023-01-03T20:53:27.737Z,97810.66
2023-01-03T20:55:56.079Z,97827.44
2023-01-03T20:58:26.066Z,97820.56
2023-01-03T21:01:03.748Z,97870.19
2023-01-03T21:03:33.527Z,97815.13
2023-01-03T21:06:19.824Z,97785.16
2023-01-03T21:08:57.968Z,97850.38
2023-01-03T21:11:28.679Z,97842.59
2023-01-03T21:13:58.360Z,97806.06
2023-01-03T21:16:33.494Z,97827.53
2023-01-03T21:19:08.077Z,97875.03
2023-01-03T21:21:37.751Z,97838.41
2023-01-03T21:24:07.512Z,97598.91
2023-01-03T21:26:35.749Z,97860.53
2023-01-03T21:29:06.589Z,97814.16
2023-01-03T21:31:35.930Z,97797.75
2023-01-03T21:34:06.626Z,97850.53
2023-01-03T21:36:37.672Z,97861.84
2023-01-03T21:39:06.310Z,97776.22
2023-01-03T21:41:56.676Z,97759.69
2023-01-03T21:44:24.883Z,97788.19
2023-01-03T21:46:53.380Z,97792.72
2023-01-03T21:49:21.845Z,97775.53
2023-01-03T21:51:51.415Z,97819.78
2023-01-03T21:54:19.631Z,97815.84
2023-01-03T21:56:47.873Z,97823.72
2023-01-03T21:59:17.285Z,97805.19
2023-01-03T22:02:03.999Z,97810.00
2023-01-03T22:04:33.390Z,97839.34
2023-01-03T22:07:03.414Z,97820.06
2023-01-03T22:09:50.116Z,97821.47
2023-01-03T22:12:19.465Z,97776.97
2023-01-03T22:14:49.273Z,97850.00
2023-01-03T22:17:17.747Z,97785.69
2023-01-03T22:19:46.014Z,97765.41
2023-01-03T22:22:15.580Z,97823.56
2023-01-03T22:24:43.758Z,97816.44
2023-01-03T22:27:11.944Z,97802.28
2023-01-03T22:29:40.124Z,97809.06
2023-01-03T22:32:10.328Z,97789.63
2023-01-03T22:34:39.894Z,97816.22
2023-01-03T22:37:08.126Z,97802.63
2023-01-03T22:39:37.783Z,97785.44
2023-01-03T22:42:16.058Z,97766.47
2023-01-03T22:44:53.335Z,97807.97
2023-01-03T22:47:21.764Z,97822.56
2023-01-03T22:49:50.054Z,97840.47
2023-01-03T22:52:18.420Z,97813.22
2023-01-03T22:54:47.975Z,97775.22
2023-01-03T22:57:16.208Z,97813.19
2023-01-03T22:59:44.464Z,97813.19
2023-01-03T23:02:12.757Z,97771.28
2023-01-03T23:04:41.483Z,97758.44
2023-01-03T23:07:14.403Z,97792.31
2023-01-03T23:09:44.320Z,97818.22
2023-01-03T23:12:31.793Z,97798.94
2023-01-03T23:15:00.058Z,97821.16
2023-01-03T23:17:45.959Z,97772.09
2023-01-03T23:20:14.171Z,97789.63
2023-01-03T23:22:43.819Z,97744.97
2023-01-03T23:25:12.027Z,97763.91
2023-01-03T23:27:41.611Z,97813.84
2023-01-03T23:30:11.657Z,97748.47
2023-01-03T23:32:39.896Z,97758.19
2023-01-03T23:35:09.332Z,97776.56
2023-01-03T23:37:37.580Z,97811.56
2023-01-03T23:40:07.569Z,97818.59
2023-01-03T23:42:35.790Z,97767.50
2023-01-03T23:45:07.223Z,97731.38
2023-01-03T23:47:35.457Z,97780.31
2023-01-03T23:50:03.753Z,97799.28
2023-01-03T23:52:34.316Z,97734.66
2023-01-03T23:55:08.490Z,97732.22
2023-01-03T23:57:38.536Z,97777.88
